Time;durP1;ratioP1;P1;durP2;ratioP2;P2;SDS_P1;SDS_P2;PMS_P1;PMS_P2;Temp;Humidity;BMP_temperature;BMP_pressure;BME280_temperature;BME280_humidity;BME280_pressure;Samples;Min_cycle;Max_cycle;Signal;HPM_P1;HPM_P2
2023/01/01 00:01:56;;;;;;;38.60;29.60;;;;;;;22.57;30.18;101891.09;101253;1327;72212;-87
2023/01/01 00:04:21;;;;;;;38.00;29.30;;;;;;;22.57;30.15;101897.14;101236;1322;69231;-87
2023/01/01 00:06:46;;;;;;;41.40;30.90;;;;;;;22.57;30.17;101904.32;100686;1323;69184;-87
2023/01/01 00:11:56;;;;;;;37.60;29.20;;;;;;;22.57;30.11;101912.02;101237;1327;81151;-87
2023/01/01 00:14:22;;;;;;;35.80;28.20;;;;;;;22.56;30.06;101910.88;100829;1322;69333;-87
2023/01/01 00:16:47;;;;;;;36.80;28.40;;;;;;;22.57;30.11;101916.89;100798;1322;69493;-87
2023/01/01 00:19:13;;;;;;;36.40;27.70;;;;;;;22.57;30.03;101916.33;101135;1330;69275;-86
2023/01/01 00:21:38;;;;;;;36.70;28.00;;;;;;;22.56;30.06;101921.91;100796;1322;69135;-87
2023/01/01 00:24:05;;;;;;;36.70;28.10;;;;;;;22.56;30.10;101925.86;100723;1330;73397;-87
2023/01/01 00:26:31;;;;;;;35.30;27.80;;;;;;;22.56;30.11;101933.86;101217;1322;69347;-87
2023/01/01 00:28:56;;;;;;;33.90;27.30;;;;;;;22.56;30.04;101939.77;101177;1320;69558;-92
2023/01/01 00:31:22;;;;;;;34.70;26.80;;;;;;;22.56;30.08;101946.67;100720;1327;69239;-87
2023/01/01 00:33:52;;;;;;;32.60;27.10;;;;;;;22.56;29.98;101943.04;101261;1330;69203;-87
2023/01/01 00:36:17;;;;;;;34.00;26.60;;;;;;;22.57;29.96;101941.30;101386;1323;72708;-87
2023/01/01 00:38:44;;;;;;;31.70;26.00;;;;;;;22.56;29.98;101937.64;100844;1324;69296;-87
2023/01/01 00:41:10;;;;;;;32.80;26.70;;;;;;;22.57;29.95;101938.42;101417;1323;69145;-87
2023/01/01 00:43:35;;;;;;;31.90;25.40;;;;;;;22.56;29.90;101949.19;101325;1330;69273;-87
2023/01/01 00:46:01;;;;;;;33.70;25.90;;;;;;;22.56;29.96;101952.58;101273;1325;69167;-87
2023/01/01 00:48:26;;;;;;;32.10;25.40;;;;;;;22.56;29.84;101954.58;101306;1328;69153;-87
2023/01/01 00:50:52;;;;;;;30.80;25.60;;;;;;;22.56;29.83;101958.78;101241;1327;69114;-87
2023/01/01 00:53:18;;;;;;;32.30;24.80;;;;;;;22.56;29.84;101965.97;101040;1329;69213;-87
2023/01/01 00:55:44;;;;;;;32.50;25.20;;;;;;;22.56;29.81;101974.33;101257;1320;69270;-87
2023/01/01 00:58:10;;;;;;;32.00;25.10;;;;;;;22.56;29.88;101971.34;101375;1323;69205;-86
2023/01/01 01:00:35;;;;;;;30.60;24.30;;;;;;;22.56;29.81;101963.20;101373;1323;69193;-87
2023/01/01 01:03:01;;;;;;;31.60;25.00;;;;;;;22.56;29.83;101958.59;100985;1324;69229;-87
2023/01/01 01:05:26;;;;;;;30.50;24.90;;;;;;;22.56;29.88;101955.45;101313;1330;80380;-87
2023/01/01 01:07:52;;;;;;;30.90;24.30;;;;;;;22.56;29.74;101950.22;101393;1322;69256;-92
2023/01/01 01:10:20;;;;;;;30.20;23.90;;;;;;;22.56;29.69;101948.69;101295;1327;69229;-87
2023/01/01 01:12:45;;;;;;;29.70;23.80;;;;;;;22.56;29.72;101941.60;101460;1323;69118;-87
2023/01/01 01:15:11;;;;;;;29.60;23.80;;;;;;;22.56;29.70;101937.91;101371;1326;69176;-87
2023/01/01 01:17:36;;;;;;;33.30;24.80;;;;;;;22.57;29.67;101930.69;101455;1316;69144;-87
2023/01/01 01:20:02;;;;;;;30.90;24.60;;;;;;;22.57;29.60;101931.09;101476;1316;69278;-87
2023/01/01 01:22:28;;;;;;;31.90;23.80;;;;;;;22.57;29.57;101931.25;101239;1328;69197;-87
2023/01/01 01:24:53;;;;;;;29.70;23.30;;;;;;;22.56;29.68;101925.86;100866;1330;69327;-87
2023/01/01 01:27:19;;;;;;;27.60;23.20;;;;;;;22.56;29.67;101922.73;101392;1313;69280;-87
2023/01/01 01:29:44;;;;;;;28.30;23.60;;;;;;;22.56;29.62;101918.94;101454;1327;69390;-87
2023/01/01 01:32:11;;;;;;;30.70;24.20;;;;;;;22.56;29.65;101919.60;101376;1330;69207;-87
2023/01/01 01:34:36;;;;;;;30.50;23.70;;;;;;;22.56;29.66;101917.65;101432;1327;75554;-87
2023/01/01 01:37:01;;;;;;;30.60;23.80;;;;;;;22.56;29.57;101911.95;101461;1327;69230;-87
2023/01/01 01:39:27;;;;;;;30.30;23.20;;;;;;;22.56;29.52;101910.73;101431;1327;69258;-87
2023/01/01 01:41:52;;;;;;;29.60;22.70;;;;;;;22.56;29.56;101902.91;100982;1326;69221;-87
2023/01/01 01:44:52;;;;;;;29.70;23.10;;;;;;;22.56;29.46;101905.90;101329;1322;69222;-86
2023/01/01 01:47:32;;;;;;;28.80;23.10;;;;;;;22.56;29.61;101906.30;101582;1319;82109;-87
2023/01/01 01:50:13;;;;;;;29.80;23.70;;;;;;;22.55;29.54;101909.63;101463;1319;72497;-88
2023/01/01 01:52:40;;;;;;;28.50;22.70;;;;;;;22.56;29.52;101910.91;101229;1326;69385;-92
2023/01/01 01:55:07;;;;;;;28.40;22.20;;;;;;;22.55;29.43;101906.44;101330;1323;69253;-87
2023/01/01 01:57:32;;;;;;;31.70;22.80;;;;;;;22.55;29.52;101905.32;101530;1320;69215;-87
2023/01/01 01:59:57;;;;;;;28.50;22.40;;;;;;;22.55;29.47;101900.29;100958;1325;69246;-87
2023/01/01 02:02:41;;;;;;;29.50;23.00;;;;;;;22.55;29.38;101899.42;101507;1330;69133;-87
2023/01/01 02:05:07;;;;;;;29.80;23.20;;;;;;;22.55;29.44;101896.02;101450;1327;68954;-87
2023/01/01 02:07:32;;;;;;;28.60;22.40;;;;;;;22.55;29.37;101896.82;101253;1327;69245;-91
2023/01/01 02:09:58;;;;;;;30.10;23.30;;;;;;;22.55;29.41;101894.08;100881;1319;69255;-87
2023/01/01 02:12:24;;;;;;;29.50;22.60;;;;;;;22.56;29.35;101896.41;101386;1327;69135;-87
2023/01/01 02:14:50;;;;;;;26.60;22.00;;;;;;;22.56;29.34;101888.91;101394;1323;69142;-87
2023/01/01 02:17:23;;;;;;;30.20;22.90;;;;;;;22.55;29.37;101877.89;101364;1323;69293;-88
2023/01/01 02:19:54;;;;;;;29.10;22.30;;;;;;;22.55;29.38;101875.73;100875;1330;74783;-87
2023/01/01 02:22:46;;;;;;;29.30;22.70;;;;;;;22.55;29.30;101871.67;101290;1327;83136;-87
2023/01/01 02:25:27;;;;;;;28.50;21.60;;;;;;;22.55;29.35;101873.25;101306;1319;72614;-88
2023/01/01 02:27:59;;;;;;;;;;;;;;;22.54;29.31;101874.73;101343;1327;69127;-87
2023/01/01 02:30:24;;;;;;;27.30;20.90;;;;;;;22.52;29.28;101874.29;101486;1319;69097;-87
2023/01/01 02:32:57;;;;;;;28.10;21.40;;;;;;;22.52;29.23;101871.27;101259;1322;69310;-87
2023/01/01 02:35:33;;;;;;;28.80;21.40;;;;;;;22.52;29.34;101865.88;100982;1327;83123;-87
2023/01/01 02:38:03;;;;;;;29.80;22.50;;;;;;;22.52;29.26;101860.18;101435;1319;71347;-87
2023/01/01 02:40:28;;;;;;;29.20;22.90;;;;;;;22.52;29.29;101855.56;101017;1329;69092;-92
2023/01/01 02:42:54;;;;;;;27.90;22.50;;;;;;;22.51;29.24;101851.24;101273;1327;69145;-87
2023/01/01 02:45:20;;;;;;;28.10;22.40;;;;;;;22.52;29.24;101853.98;101183;1328;260631;-87
2023/01/01 02:47:45;;;;;;;27.10;21.10;;;;;;;22.52;29.24;101855.66;101391;1323;69220;-87
2023/01/01 02:50:18;;;;;;;26.20;22.30;;;;;;;22.52;29.11;101856.23;101511;1319;69659;-87
2023/01/01 02:53:16;;;;;;;30.80;23.00;;;;;;;22.52;29.18;101858.13;101483;1319;69145;-87
2023/01/01 02:55:47;;;;;;;28.80;22.10;;;;;;;22.52;29.22;101852.90;101376;1319;74795;-88
2023/01/01 03:01:30;;;;;;;27.10;21.00;;;;;;;22.51;29.13;101843.91;101303;1324;72365;-87
2023/01/01 03:04:22;;;;;;;27.50;21.50;;;;;;;22.51;29.12;101839.71;101431;1319;69210;-87
2023/01/01 03:06:55;;;;;;;27.60;22.00;;;;;;;22.52;29.05;101839.36;101361;1324;69134;-86
2023/01/01 03:09:51;;;;;;;31.00;22.10;;;;;;;22.52;29.17;101832.84;101423;1320;74808;-86
2023/01/01 03:12:20;;;;;;;30.60;23.00;;;;;;;22.52;29.07;101832.17;101306;1329;83148;-87
2023/01/01 03:14:47;;;;;;;28.50;21.90;;;;;;;22.52;29.09;101834.59;101373;1327;67676;-87
2023/01/01 03:17:25;;;;;;;27.80;21.40;;;;;;;22.53;29.13;101839.00;101342;1320;69206;-87
2023/01/01 03:19:51;;;;;;;30.40;22.60;;;;;;;22.53;29.12;101844.86;101336;1318;69144;-87
2023/01/01 03:22:16;;;;;;;26.90;22.10;;;;;;;22.53;29.10;101850.66;101367;1313;69208;-93
2023/01/01 03:24:43;;;;;;;28.60;22.20;;;;;;;22.54;29.15;101847.74;100930;1322;69246;-86
2023/01/01 03:27:12;;;;;;;28.00;22.30;;;;;;;22.54;29.07;101843.85;101367;1327;69209;-87
2023/01/01 03:29:39;;;;;;;30.20;22.40;;;;;;;22.53;28.97;101840.41;101313;1322;69049;-87
2023/01/01 03:32:04;;;;;;;30.20;22.00;;;;;;;22.54;29.12;101841.27;101419;1323;69202;-87
2023/01/01 03:34:33;;;;;;;29.00;22.40;;;;;;;22.54;29.08;101835.80;101332;1325;69165;-88
2023/01/01 03:36:59;;;;;;;27.90;22.60;;;;;;;22.55;29.06;101839.86;101402;1319;83109;-87
2023/01/01 03:39:30;;;;;;;30.30;22.60;;;;;;;22.55;29.05;101843.34;101164;1330;69216;-87
2023/01/01 03:42:01;;;;;;;29.50;23.50;;;;;;;22.55;29.09;101848.80;101230;1325;69198;-86
2023/01/01 03:44:40;;;;;;;28.30;22.70;;;;;;;22.54;29.03;101856.16;101380;1328;69216;-87
2023/01/01 03:47:05;;;;;;;28.40;22.30;;;;;;;22.54;28.96;101861.40;101446;1311;74587;-87
2023/01/01 03:49:31;;;;;;;32.40;22.40;;;;;;;22.55;28.96;101863.81;101480;1320;67359;-88
2023/01/01 03:52:11;;;;;;;28.30;22.40;;;;;;;22.55;28.99;101867.77;100889;1327;69199;-87
2023/01/01 03:54:49;;;;;;;28.60;22.00;;;;;;;22.55;29.06;101872.33;101505;1323;69193;-87
2023/01/01 03:57:25;;;;;;;28.90;22.10;;;;;;;22.55;28.90;101876.29;101481;1319;69093;-87
2023/01/01 04:00:09;;;;;;;30.40;23.10;;;;;;;22.55;28.99;101878.95;101424;1325;74541;-87
2023/01/01 04:02:40;;;;;;;29.70;21.70;;;;;;;22.55;28.93;101879.51;101336;1326;82007;-87
2023/01/01 04:05:09;;;;;;;29.20;21.80;;;;;;;22.55;28.86;101878.37;101366;1320;72548;-87
2023/01/01 04:07:34;;;;;;;29.70;22.00;;;;;;;22.55;28.99;101877.01;101432;1327;67797;-87
2023/01/01 04:10:00;;;;;;;28.90;22.20;;;;;;;22.55;28.99;101877.06;100890;1327;69212;-87
2023/01/01 04:12:25;;;;;;;31.60;21.80;;;;;;;22.55;28.96;101882.15;101466;1327;69194;-87
2023/01/01 04:14:51;;;;;;;29.70;22.00;;;;;;;22.56;28.98;101881.17;101369;1322;69203;-87
2023/01/01 04:17:17;;;;;;;31.00;21.90;;;;;;;22.56;28.92;101880.50;101428;1323;69236;-87
2023/01/01 04:19:42;;;;;;;26.40;21.50;;;;;;;22.56;28.91;101882.77;100941;1322;69104;-87
2023/01/01 04:22:08;;;;;;;27.00;21.40;;;;;;;22.56;28.83;101881.88;101357;1320;69215;-91
2023/01/01 04:24:34;;;;;;;32.40;22.90;;;;;;;22.56;28.93;101878.40;101014;1322;69375;-87
2023/01/01 04:26:59;;;;;;;30.80;23.80;;;;;;;22.56;28.84;101877.27;101251;1320;69900;-87
2023/01/01 04:29:24;;;;;;;30.10;22.50;;;;;;;22.56;28.81;101882.26;101459;1329;69258;-87
2023/01/01 04:31:50;;;;;;;29.60;21.70;;;;;;;22.57;28.68;101880.05;101436;1327;69224;-87
2023/01/01 04:34:15;;;;;;;29.60;21.70;;;;;;;22.57;28.78;101883.91;101544;1319;66724;-87
2023/01/01 04:36:41;;;;;;;30.10;22.50;;;;;;;22.57;28.77;101883.03;101429;1327;69280;-87
2023/01/01 04:39:06;;;;;;;30.60;22.40;;;;;;;22.57;28.67;101887.76;101283;1326;69171;-87
2023/01/01 04:41:32;;;;;;;31.10;22.50;;;;;;;22.57;28.77;101889.61;101452;1328;74528;-87
2023/01/01 04:43:58;;;;;;;28.50;21.30;;;;;;;22.58;28.69;101896.02;101435;1327;69279;-87
2023/01/01 04:46:23;;;;;;;28.30;21.60;;;;;;;22.58;28.74;101900.04;101068;1327;69206;-87
2023/01/01 04:48:49;;;;;;;29.70;22.90;;;;;;;22.59;28.69;101902.92;101254;1330;69279;-87
2023/01/01 04:51:15;;;;;;;32.70;23.20;;;;;;;22.58;28.68;101901.73;101486;1327;69198;-87
2023/01/01 04:53:41;;;;;;;28.90;22.40;;;;;;;22.59;28.67;101907.34;101362;1322;82183;-87
2023/01/01 04:56:11;;;;;;;33.60;22.20;;;;;;;22.59;28.77;101916.94;101356;1327;69224;-87
2023/01/01 04:58:38;;;;;;;27.00;20.80;;;;;;;22.59;28.70;101922.11;101409;1322;69129;-87
2023/01/01 05:01:03;;;;;;;30.20;22.90;;;;;;;22.59;28.74;101924.42;101447;1330;69162;-92
2023/01/01 05:03:29;;;;;;;31.70;22.20;;;;;;;22.60;28.62;101928.89;101223;1327;69248;-87
2023/01/01 05:06:05;;;;;;;30.30;23.00;;;;;;;22.60;28.60;101928.65;101040;1324;69170;-87
2023/01/01 05:08:31;;;;;;;32.70;22.80;;;;;;;22.60;28.58;101938.40;101356;1327;72706;-87
2023/01/01 05:11:05;;;;;;;28.90;22.30;;;;;;;22.59;28.63;101938.19;101366;1327;69174;-87
2023/01/01 05:13:31;;;;;;;29.80;22.90;;;;;;;22.60;28.49;101943.32;101357;1325;69211;-87
2023/01/01 05:15:56;;;;;;;29.40;22.40;;;;;;;22.60;28.62;101945.79;101253;1328;69230;-92
2023/01/01 05:18:22;;;;;;;29.80;23.10;;;;;;;22.61;28.57;101944.61;101244;1314;69225;-87
2023/01/01 05:20:47;;;;;;;31.30;23.60;;;;;;;22.61;28.57;101941.80;101409;1320;69198;-87
2023/01/01 05:23:16;;;;;;;32.60;23.20;;;;;;;22.62;28.44;101936.22;101237;1320;69516;-87
2023/01/01 05:25:41;;;;;;;31.30;22.90;;;;;;;22.62;28.61;101941.66;101260;1327;74569;-87
2023/01/01 05:28:07;;;;;;;31.40;23.50;;;;;;;22.62;28.53;101939.25;101410;1327;69281;-88
2023/01/01 05:30:32;;;;;;;31.40;23.50;;;;;;;22.62;28.53;101939.55;101233;1330;69215;-87
2023/01/01 05:32:58;;;;;;;31.30;23.00;;;;;;;22.62;28.46;101939.97;101279;1327;67664;-87
2023/01/01 05:35:23;;;;;;;32.80;24.10;;;;;;;22.62;28.49;101939.71;101354;1313;69188;-87
2023/01/01 05:37:50;;;;;;;31.80;24.30;;;;;;;22.63;28.46;101935.14;100870;1322;69267;-87
2023/01/01 05:40:16;;;;;;;31.40;23.70;;;;;;;22.63;28.45;101938.80;101359;1320;72372;-87
2023/01/01 05:42:42;;;;;;;31.10;24.10;;;;;;;22.63;28.44;101936.59;101267;1327;69225;-87
2023/01/01 05:45:08;;;;;;;30.30;23.70;;;;;;;22.64;28.42;101935.62;101296;1323;69197;-87
2023/01/01 05:47:33;;;;;;;30.60;23.10;;;;;;;22.63;28.44;101932.39;101470;1318;69219;-87
2023/01/01 05:49:59;;;;;;;30.00;24.00;;;;;;;22.64;28.37;101937.17;101468;1322;69206;-87
2023/01/01 05:52:24;;;;;;;31.30;23.20;;;;;;;22.65;28.34;101939.70;101135;1329;69247;-87
2023/01/01 05:54:50;;;;;;;30.60;23.10;;;;;;;22.65;28.31;101936.97;101544;1329;69277;-92
2023/01/01 05:57:15;;;;;;;35.70;24.40;;;;;;;22.66;28.38;101934.17;100958;1329;69285;-87
2023/01/01 05:59:41;;;;;;;29.30;24.20;;;;;;;22.66;28.23;101930.79;101499;1324;69572;-87
2023/01/01 06:02:06;;;;;;;31.00;24.60;;;;;;;22.66;28.37;101923.76;101455;1328;69326;-87
2023/01/01 06:04:31;;;;;;;29.20;23.90;;;;;;;22.67;28.34;101923.30;101373;1328;69161;-87
2023/01/01 06:06:57;;;;;;;30.30;23.40;;;;;;;22.69;28.36;101917.38;101218;1327;67021;-87
2023/01/01 06:09:22;;;;;;;33.50;24.50;;;;;;;22.69;28.26;101915.74;101136;1330;69304;-87
2023/01/01 06:11:48;;;;;;;31.80;24.10;;;;;;;22.70;28.31;101919.46;101625;1322;69269;-87
2023/01/01 06:14:13;;;;;;;30.30;24.50;;;;;;;22.70;28.25;101923.83;101592;1320;69136;-87
2023/01/01 06:16:39;;;;;;;32.50;25.10;;;;;;;22.71;28.39;101925.89;101732;1325;69170;-87
2023/01/01 06:19:04;;;;;;;35.20;24.70;;;;;;;22.71;28.25;101928.52;101535;1324;69627;-88
2023/01/01 06:21:30;;;;;;;32.30;23.80;;;;;;;22.72;28.24;101930.67;100820;1329;69227;-87
2023/01/01 06:23:56;;;;;;;32.20;24.40;;;;;;;22.72;28.26;101934.27;101407;1326;69272;-87
2023/01/01 06:26:27;;;;;;;30.50;22.90;;;;;;;22.73;28.26;101933.10;101059;1324;74556;-87
2023/01/01 06:28:54;;;;;;;32.60;24.20;;;;;;;22.73;28.20;101932.54;101477;1327;82001;-87
2023/01/01 06:31:20;;;;;;;32.10;24.40;;;;;;;22.74;28.25;101932.49;101344;1327;69113;-87
2023/01/01 06:33:45;;;;;;;30.30;24.00;;;;;;;22.74;28.18;101938.10;101399;1323;69220;-92
2023/01/01 06:36:12;;;;;;;29.80;24.30;;;;;;;22.75;28.16;101933.90;101227;1320;69290;-87
2023/01/01 06:38:40;;;;;;;29.90;24.50;;;;;;;22.75;28.26;101939.44;101408;1317;69155;-87
2023/01/01 06:41:07;;;;;;;30.40;23.90;;;;;;;22.75;28.14;101944.41;101399;1327;69211;-87
2023/01/01 06:43:33;;;;;;;33.40;24.90;;;;;;;22.75;28.19;101946.88;101327;1325;72550;-87
2023/01/01 06:45:59;;;;;;;32.80;24.20;;;;;;;22.76;28.12;101946.39;100886;1325;69190;-87
2023/01/01 06:48:24;;;;;;;29.20;23.40;;;;;;;22.77;28.17;101947.31;101338;1327;69626;-87
2023/01/01 06:50:50;;;;;;;30.80;23.90;;;;;;;22.77;28.12;101949.13;101385;1327;69201;-87
2023/01/01 06:53:15;;;;;;;33.30;24.80;;;;;;;22.78;28.19;101954.22;100902;1328;69172;-87
2023/01/01 06:55:47;;;;;;;32.90;24.90;;;;;;;22.79;28.15;101961.05;101425;1312;69146;-87
2023/01/01 06:58:13;;;;;;;34.50;24.70;;;;;;;22.79;28.11;101966.61;101558;1317;69250;-88
2023/01/01 07:00:38;;;;;;;34.90;24.80;;;;;;;22.80;28.12;101963.08;100978;1322;69281;-92
2023/01/01 07:03:04;;;;;;;32.60;24.90;;;;;;;22.81;28.16;101959.15;101355;1317;69250;-87
2023/01/01 07:05:32;;;;;;;32.10;25.00;;;;;;;22.82;28.07;101958.49;101632;1326;69306;-87
2023/01/01 07:07:57;;;;;;;30.10;24.10;;;;;;;22.83;28.12;101956.52;101485;1327;69152;-87
2023/01/01 07:10:23;;;;;;;30.80;24.00;;;;;;;22.84;28.11;101957.66;101464;1327;69148;-87
2023/01/01 07:12:48;;;;;;;31.00;24.80;;;;;;;22.85;28.05;101956.08;101012;1323;69429;-88
2023/01/01 07:15:14;;;;;;;32.40;24.40;;;;;;;22.85;28.09;101959.83;101321;1328;69307;-87
2023/01/01 07:17:40;;;;;;;34.10;24.70;;;;;;;22.86;28.02;101957.22;100917;1327;69281;-87
2023/01/01 07:20:06;;;;;;;33.20;25.10;;;;;;;22.87;28.08;101956.31;101287;1321;69244;-87
2023/01/01 07:22:32;;;;;;;30.40;24.10;;;;;;;22.89;28.12;101954.79;101395;1319;69298;-87
2023/01/01 07:24:57;;;;;;;30.80;23.80;;;;;;;22.90;28.05;101958.51;101311;1323;69285;-87
2023/01/01 07:27:23;;;;;;;32.20;23.20;;;;;;;22.91;28.06;101954.01;101427;1323;69176;-92
2023/01/01 07:29:49;;;;;;;29.10;24.10;;;;;;;22.93;28.06;101954.61;100996;1322;69226;-87
2023/01/01 07:32:14;;;;;;;34.10;24.50;;;;;;;22.94;28.11;101956.32;101413;1322;69196;-87
2023/01/01 07:34:40;;;;;;;31.70;24.00;;;;;;;22.96;28.06;101961.89;101438;1327;69335;-87
2023/01/01 07:37:05;;;;;;;31.00;24.30;;;;;;;22.98;27.99;101966.23;101472;1324;69283;-87
2023/01/01 07:39:30;;;;;;;32.50;23.60;;;;;;;23.00;28.08;101964.56;100936;1327;69282;-93
2023/01/01 07:41:56;;;;;;;32.80;23.70;;;;;;;23.01;28.03;101959.19;101402;1328;69173;-87
2023/01/01 07:44:21;;;;;;;33.50;24.50;;;;;;;23.03;27.99;101962.19;101436;1325;69131;-87
2023/01/01 07:46:47;;;;;;;32.80;24.40;;;;;;;23.04;27.94;101966.52;100949;1322;69218;-87
2023/01/01 07:49:12;;;;;;;32.40;24.10;;;;;;;23.05;27.96;101966.85;101472;1326;69159;-87
2023/01/01 07:51:38;;;;;;;32.80;23.70;;;;;;;23.07;28.02;101969.81;101497;1323;75520;-87
2023/01/01 07:54:03;;;;;;;31.60;24.10;;;;;;;23.08;27.95;101968.80;101431;1327;69164;-87
2023/01/01 07:56:29;;;;;;;30.00;23.20;;;;;;;23.09;28.04;101963.33;101553;1322;70230;-87
2023/01/01 07:58:54;;;;;;;31.00;23.90;;;;;;;23.11;27.95;101966.36;101380;1322;69218;-87
2023/01/01 08:01:20;;;;;;;28.50;22.90;;;;;;;23.13;28.08;101971.73;101517;1319;69569;-88
2023/01/01 08:03:49;;;;;;;31.40;24.20;;;;;;;23.14;28.02;101975.80;101488;1318;69084;-88
2023/01/01 08:06:15;;;;;;;28.70;23.80;;;;;;;23.15;28.03;101972.67;101350;1328;73459;-92
2023/01/01 08:08:40;;;;;;;31.70;23.40;;;;;;;23.17;28.01;101978.15;100864;1324;69690;-87
2023/01/01 08:11:06;;;;;;;29.80;23.10;;;;;;;23.18;28.05;101980.11;101423;1325;69171;-87
2023/01/01 08:13:31;;;;;;;30.20;23.20;;;;;;;23.19;28.03;101982.70;101602;1324;69180;-87
2023/01/01 08:15:57;;;;;;;31.90;23.50;;;;;;;23.20;28.04;101982.67;101570;1322;69209;-87
2023/01/01 08:18:23;;;;;;;31.20;23.40;;;;;;;23.21;28.07;101990.03;101355;1327;69173;-92
2023/01/01 08:20:48;;;;;;;28.80;23.10;;;;;;;23.21;28.05;101991.48;101465;1326;69241;-87
2023/01/01 08:23:14;;;;;;;27.50;22.90;;;;;;;23.22;28.10;101994.49;101427;1330;69636;-87
2023/01/01 08:25:39;;;;;;;31.10;23.70;;;;;;;23.23;28.09;101995.08;101363;1326;69162;-87
2023/01/01 08:28:05;;;;;;;28.20;23.00;;;;;;;23.23;28.00;101991.28;100928;1330;69209;-87
2023/01/01 08:30:30;;;;;;;31.80;23.60;;;;;;;23.24;28.12;101988.88;101465;1325;69186;-88
2023/01/01 08:32:56;;;;;;;29.90;23.30;;;;;;;23.25;28.10;101991.31;100951;1327;69258;-87
2023/01/01 08:35:21;;;;;;;32.60;24.30;;;;;;;23.27;28.11;101988.91;101426;1328;69212;-87
2023/01/01 08:37:46;;;;;;;30.10;23.20;;;;;;;23.28;28.09;101988.71;101368;1328;69212;-87
2023/01/01 08:40:12;;;;;;;32.20;24.50;;;;;;;23.28;28.06;101985.28;101472;1318;69203;-88
2023/01/01 08:42:38;;;;;;;30.40;23.60;;;;;;;23.30;28.14;101989.30;100888;1324;69172;-88
2023/01/01 08:45:04;;;;;;;29.20;23.60;;;;;;;23.30;28.14;101983.88;101018;1317;69300;-88
2023/01/01 08:47:29;;;;;;;33.90;24.60;;;;;;;23.31;28.23;101988.14;101259;1327;69147;-87
2023/01/01 08:49:55;;;;;;;33.30;24.10;;;;;;;23.31;28.16;101991.90;101414;1327;69326;-87
2023/01/01 08:52:21;;;;;;;31.60;24.00;;;;;;;23.32;28.21;101997.50;101473;1319;69126;-87
2023/01/01 08:54:46;;;;;;;32.60;24.00;;;;;;;23.32;28.25;101997.56;100974;1327;69229;-87
2023/01/01 08:57:12;;;;;;;30.50;24.30;;;;;;;23.33;28.24;101995.42;101397;1330;69361;-92
2023/01/01 08:59:37;;;;;;;30.90;23.60;;;;;;;23.33;28.28;101991.94;101159;1328;69105;-87
2023/01/01 09:02:03;;;;;;;31.90;24.30;;;;;;;23.34;28.32;101991.58;101362;1320;69207;-87
2023/01/01 09:04:29;;;;;;;32.30;24.70;;;;;;;23.34;28.33;101988.56;101470;1318;69213;-87
2023/01/01 09:06:54;;;;;;;31.60;23.80;;;;;;;23.34;28.26;101986.70;101356;1321;69225;-87
2023/01/01 09:09:20;;;;;;;29.20;23.50;;;;;;;23.35;28.37;101984.87;101361;1324;69242;-88
2023/01/01 09:11:52;;;;;;;32.00;23.70;;;;;;;23.36;28.31;101983.95;100968;1326;69119;-87
2023/01/01 09:14:19;;;;;;;29.00;23.70;;;;;;;23.37;28.35;101983.80;101440;1325;74197;-87
2023/01/01 09:16:44;;;;;;;30.40;24.40;;;;;;;23.38;28.38;101978.73;100930;1322;69164;-87
2023/01/01 09:19:10;;;;;;;30.40;23.70;;;;;;;23.39;28.32;101981.36;100878;1327;69295;-87
2023/01/01 09:21:35;;;;;;;32.80;24.70;;;;;;;23.40;28.26;101986.27;101336;1327;69285;-88
2023/01/01 09:24:01;;;;;;;29.90;23.50;;;;;;;23.42;28.37;101985.36;101389;1319;69202;-89
2023/01/01 09:26:26;;;;;;;32.40;24.50;;;;;;;23.43;28.37;101982.10;101491;1321;69273;-87
2023/01/01 09:28:52;;;;;;;30.00;23.30;;;;;;;23.44;28.36;101979.08;101380;1321;69333;-87
2023/01/01 09:31:17;;;;;;;31.20;24.40;;;;;;;23.45;28.38;101979.25;101427;1327;69211;-87
2023/01/01 09:33:43;;;;;;;30.10;23.50;;;;;;;23.47;28.38;101976.66;100898;1327;69277;-87
2023/01/01 09:36:12;;;;;;;30.50;23.80;;;;;;;23.48;28.38;101974.14;100867;1327;69151;-87
2023/01/01 09:38:37;;;;;;;33.10;24.30;;;;;;;23.50;28.40;101968.63;101409;1326;73582;-87
2023/01/01 09:41:10;;;;;;;31.40;24.00;;;;;;;23.50;28.44;101969.16;101408;1323;69207;-87
2023/01/01 09:43:42;;;;;;;29.80;23.60;;;;;;;23.52;28.46;101966.80;101464;1318;69222;-87
2023/01/01 09:46:07;;;;;;;29.90;23.10;;;;;;;23.53;28.43;101964.81;101562;1319;73478;-87
2023/01/01 09:48:35;;;;;;;32.30;24.50;;;;;;;23.54;28.47;101965.40;101319;1330;69268;-87
2023/01/01 09:51:03;;;;;;;29.00;23.30;;;;;;;23.56;28.50;101966.50;101351;1327;72430;-92
2023/01/01 09:53:49;;;;;;;34.10;23.40;;;;;;;23.57;28.49;101965.64;101139;1327;69253;-87
2023/01/01 09:56:21;;;;;;;30.20;23.70;;;;;;;23.58;28.60;101966.23;101069;1321;69197;-87
2023/01/01 09:58:46;;;;;;;29.60;23.80;;;;;;;23.60;28.51;101966.53;100940;1321;69147;-87
2023/01/01 10:01:17;;;;;;;29.90;23.70;;;;;;;23.61;28.59;101969.17;101444;1326;69275;-87
2023/01/01 10:03:54;;;;;;;29.50;22.80;;;;;;;23.62;28.66;101970.57;101578;1324;69152;-87
2023/01/01 10:06:27;;;;;;;30.80;23.70;;;;;;;23.64;28.64;101971.68;101375;1325;69181;-87
2023/01/01 10:08:56;;;;;;;30.40;23.20;;;;;;;23.66;28.75;101969.48;101509;1327;69196;-92
2023/01/01 10:11:26;;;;;;;29.40;23.20;;;;;;;23.66;28.67;101968.64;101466;1325;69254;-87
2023/01/01 10:13:52;;;;;;;30.20;23.30;;;;;;;23.68;28.59;101964.02;101393;1328;73577;-87
2023/01/01 10:16:27;;;;;;;27.10;22.60;;;;;;;23.69;28.60;101961.90;101202;1330;69140;-87
2023/01/01 10:18:54;;;;;;;29.20;23.10;;;;;;;23.71;28.58;101956.82;101404;1322;69134;-87
2023/01/01 10:21:29;;;;;;;27.80;22.30;;;;;;;23.71;28.65;101953.37;101313;1326;67819;-87
2023/01/01 10:23:56;;;;;;;28.50;22.30;;;;;;;23.73;28.63;101948.86;101380;1317;67135;-92
2023/01/01 10:26:24;;;;;;;29.80;22.90;;;;;;;23.74;28.70;101944.67;101307;1326;73512;-87
2023/01/01 10:28:53;;;;;;;27.40;22.20;;;;;;;23.75;28.69;101940.20;101440;1328;68988;-87
2023/01/01 10:31:26;;;;;;;27.90;22.50;;;;;;;23.75;28.72;101933.73;101442;1317;68787;-87
2023/01/01 10:33:52;;;;;;;26.80;22.10;;;;;;;23.75;28.74;101936.45;101259;1319;69667;-88
2023/01/01 10:36:18;;;;;;;29.50;22.50;;;;;;;23.75;28.75;101932.40;100878;1323;69116;-87
2023/01/01 10:38:44;;;;;;;30.30;22.40;;;;;;;23.76;28.67;101927.27;101495;1325;69244;-92
2023/01/01 10:41:09;;;;;;;27.60;22.30;;;;;;;23.76;28.74;101920.08;100955;1329;69062;-87
2023/01/01 10:43:35;;;;;;;26.40;22.20;;;;;;;23.77;28.82;101918.84;101473;1324;69310;-87
2023/01/01 10:46:01;;;;;;;30.00;22.60;;;;;;;23.76;28.92;101914.89;101522;1324;69473;-87
2023/01/01 10:48:29;;;;;;;27.20;21.80;;;;;;;23.77;28.94;101911.61;101437;1327;73481;-87
2023/01/01 10:50:54;;;;;;;28.50;22.40;;;;;;;23.78;28.86;101907.30;101423;1321;73531;-88
2023/01/01 10:53:23;;;;;;;28.80;21.70;;;;;;;23.79;28.94;101904.42;101392;1321;69095;-87
2023/01/01 10:56:15;;;;;;;28.60;21.90;;;;;;;23.79;29.01;101903.61;101560;1316;69176;-87
2023/01/01 10:58:44;;;;;;;27.90;22.00;;;;;;;23.79;29.00;101899.96;101433;1330;69144;-87
2023/01/01 11:01:12;;;;;;;28.30;21.70;;;;;;;23.80;29.01;101903.88;101517;1317;74347;-87
2023/01/01 11:04:09;;;;;;;30.00;21.70;;;;;;;23.81;29.07;101905.02;101378;1322;69065;-87
2023/01/01 11:06:35;;;;;;;27.90;21.80;;;;;;;23.81;29.11;101903.70;101452;1327;69077;-88
2023/01/01 11:09:05;;;;;;;27.20;21.80;;;;;;;23.82;29.09;101900.02;101479;1327;69204;-88
2023/01/01 11:11:41;;;;;;;26.30;21.00;;;;;;;23.83;29.19;101898.30;101395;1328;69172;-87